sensor_id;sensor_type;location;lat;lon;timestamp;P1;durP1;ratioP1;P2;durP2;ratioP2
38085;SDS011;23896;50.678;10.924;2023-06-19T00:04:46;8.32;;;7.63;;
38085;SDS011;23896;50.678;10.924;2023-06-19T00:10:33;8.57;;;7.78;;
38085;SDS011;23896;50.678;10.924;2023-06-19T00:13:25;8.75;;;8.00;;
38085;SDS011;23896;50.678;10.924;2023-06-19T00:19:02;9.43;;;8.52;;
38085;SDS011;23896;50.678;10.924;2023-06-19T00:22:02;9.65;;;8.85;;
38085;SDS011;23896;50.678;10.924;2023-06-19T00:24:29;9.02;;;8.23;;
38085;SDS011;23896;50.678;10.924;2023-06-19T00:27:04;9.67;;;8.57;;
38085;SDS011;23896;50.678;10.924;2023-06-19T00:29:37;9.40;;;8.30;;
38085;SDS011;23896;50.678;10.924;2023-06-19T00:32:04;10.10;;;8.85;;
38085;SDS011;23896;50.678;10.924;2023-06-19T00:34:31;9.88;;;8.93;;
38085;SDS011;23896;50.678;10.924;2023-06-19T00:37:02;9.15;;;8.32;;
38085;SDS011;23896;50.678;10.924;2023-06-19T00:39:29;9.73;;;8.55;;
38085;SDS011;23896;50.678;10.924;2023-06-19T00:41:55;8.38;;;7.68;;
38085;SDS011;23896;50.678;10.924;2023-06-19T00:44:22;9.52;;;8.55;;
38085;SDS011;23896;50.678;10.924;2023-06-19T00:46:51;9.02;;;8.13;;
38085;SDS011;23896;50.678;10.924;2023-06-19T00:49:19;8.98;;;8.27;;
38085;SDS011;23896;50.678;10.924;2023-06-19T00:51:45;9.25;;;8.50;;
38085;SDS011;23896;50.678;10.924;2023-06-19T00:54:11;11.90;;;8.70;;
38085;SDS011;23896;50.678;10.924;2023-06-19T00:56:38;10.65;;;8.60;;
38085;SDS011;23896;50.678;10.924;2023-06-19T00:59:06;9.25;;;8.35;;
38085;SDS011;23896;50.678;10.924;2023-06-19T01:01:33;9.02;;;8.23;;
38085;SDS011;23896;50.678;10.924;2023-06-19T01:04:00;9.00;;;8.10;;
38085;SDS011;23896;50.678;10.924;2023-06-19T01:06:27;8.93;;;8.13;;
38085;SDS011;23896;50.678;10.924;2023-06-19T01:08:59;9.00;;;8.23;;
38085;SDS011;23896;50.678;10.924;2023-06-19T01:11:29;9.10;;;8.35;;
38085;SDS011;23896;50.678;10.924;2023-06-19T01:13:59;9.27;;;8.38;;
38085;SDS011;23896;50.678;10.924;2023-06-19T01:16:26;9.65;;;8.80;;
38085;SDS011;23896;50.678;10.924;2023-06-19T01:18:54;9.00;;;8.27;;
38085;SDS011;23896;50.678;10.924;2023-06-19T01:21:21;9.73;;;8.82;;
38085;SDS011;23896;50.678;10.924;2023-06-19T01:23:47;9.73;;;8.82;;
38085;SDS011;23896;50.678;10.924;2023-06-19T01:26:16;11.20;;;9.10;;
38085;SDS011;23896;50.678;10.924;2023-06-19T01:28:43;9.23;;;8.50;;
38085;SDS011;23896;50.678;10.924;2023-06-19T01:31:12;10.05;;;9.05;;
38085;SDS011;23896;50.678;10.924;2023-06-19T01:33:40;8.90;;;8.02;;
38085;SDS011;23896;50.678;10.924;2023-06-19T01:36:08;9.23;;;8.43;;
38085;SDS011;23896;50.678;10.924;2023-06-19T01:38:35;10.98;;;8.93;;
38085;SDS011;23896;50.678;10.924;2023-06-19T01:41:01;9.48;;;8.48;;
38085;SDS011;23896;50.678;10.924;2023-06-19T01:43:28;9.90;;;8.95;;
38085;SDS011;23896;50.678;10.924;2023-06-19T01:45:58;10.52;;;9.10;;
38085;SDS011;23896;50.678;10.924;2023-06-19T01:48:26;9.77;;;8.88;;
38085;SDS011;23896;50.678;10.924;2023-06-19T01:50:52;12.75;;;9.43;;
38085;SDS011;23896;50.678;10.924;2023-06-19T01:53:18;9.80;;;8.90;;
38085;SDS011;23896;50.678;10.924;2023-06-19T01:55:44;9.23;;;8.43;;
38085;SDS011;23896;50.678;10.924;2023-06-19T01:58:11;10.60;;;9.20;;
38085;SDS011;23896;50.678;10.924;2023-06-19T02:00:39;9.43;;;8.52;;
38085;SDS011;23896;50.678;10.924;2023-06-19T02:03:08;10.05;;;9.07;;
38085;SDS011;23896;50.678;10.924;2023-06-19T02:05:36;9.52;;;8.48;;
38085;SDS011;23896;50.678;10.924;2023-06-19T02:08:04;9.02;;;8.23;;
38085;SDS011;23896;50.678;10.924;2023-06-19T02:10:31;7.68;;;6.85;;
38085;SDS011;23896;50.678;10.924;2023-06-19T02:12:59;8.18;;;6.88;;
38085;SDS011;23896;50.678;10.924;2023-06-19T02:15:26;7.05;;;6.35;;
38085;SDS011;23896;50.678;10.924;2023-06-19T02:17:56;7.95;;;6.80;;
38085;SDS011;23896;50.678;10.924;2023-06-19T02:20:24;7.88;;;7.28;;
38085;SDS011;23896;50.678;10.924;2023-06-19T02:22:56;7.03;;;6.43;;
38085;SDS011;23896;50.678;10.924;2023-06-19T02:25:22;6.43;;;5.82;;
38085;SDS011;23896;50.678;10.924;2023-06-19T02:27:48;7.20;;;6.50;;
38085;SDS011;23896;50.678;10.924;2023-06-19T02:30:14;7.22;;;6.53;;
38085;SDS011;23896;50.678;10.924;2023-06-19T02:32:42;7.35;;;6.38;;
38085;SDS011;23896;50.678;10.924;2023-06-19T02:35:09;7.50;;;6.85;;
38085;SDS011;23896;50.678;10.924;2023-06-19T02:37:36;6.80;;;6.25;;
38085;SDS011;23896;50.678;10.924;2023-06-19T02:40:03;7.55;;;5.82;;
38085;SDS011;23896;50.678;10.924;2023-06-19T02:42:30;6.40;;;5.80;;
38085;SDS011;23896;50.678;10.924;2023-06-19T02:44:59;6.57;;;5.97;;
38085;SDS011;23896;50.678;10.924;2023-06-19T02:47:28;6.97;;;5.50;;
38085;SDS011;23896;50.678;10.924;2023-06-19T02:49:54;6.20;;;5.60;;
38085;SDS011;23896;50.678;10.924;2023-06-19T02:52:20;6.20;;;5.70;;
38085;SDS011;23896;50.678;10.924;2023-06-19T02:54:46;7.18;;;6.53;;
38085;SDS011;23896;50.678;10.924;2023-06-19T02:57:12;8.68;;;5.82;;
38085;SDS011;23896;50.678;10.924;2023-06-19T02:59:40;5.32;;;4.93;;
38085;SDS011;23896;50.678;10.924;2023-06-19T03:02:06;7.10;;;5.80;;
38085;SDS011;23896;50.678;10.924;2023-06-19T03:04:32;6.00;;;5.50;;
38085;SDS011;23896;50.678;10.924;2023-06-19T03:06:58;6.10;;;5.70;;
38085;SDS011;23896;50.678;10.924;2023-06-19T03:09:25;6.53;;;5.93;;
38085;SDS011;23896;50.678;10.924;2023-06-19T03:11:51;8.57;;;6.32;;
38085;SDS011;23896;50.678;10.924;2023-06-19T03:14:17;6.40;;;5.90;;
38085;SDS011;23896;50.678;10.924;2023-06-19T03:16:43;7.47;;;5.95;;
38085;SDS011;23896;50.678;10.924;2023-06-19T03:19:11;6.10;;;5.43;;
38085;SDS011;23896;50.678;10.924;2023-06-19T03:21:37;5.95;;;5.43;;
38085;SDS011;23896;50.678;10.924;2023-06-19T03:24:03;6.35;;;5.50;;
38085;SDS011;23896;50.678;10.924;2023-06-19T03:26:29;6.88;;;6.00;;
38085;SDS011;23896;50.678;10.924;2023-06-19T03:28:55;5.90;;;5.40;;
38085;SDS011;23896;50.678;10.924;2023-06-19T03:31:21;6.97;;;5.70;;
38085;SDS011;23896;50.678;10.924;2023-06-19T03:33:47;6.90;;;6.18;;
38085;SDS011;23896;50.678;10.924;2023-06-19T03:36:15;6.35;;;5.85;;
38085;SDS011;23896;50.678;10.924;2023-06-19T03:38:41;6.57;;;5.57;;
38085;SDS011;23896;50.678;10.924;2023-06-19T03:41:07;6.78;;;5.55;;
38085;SDS011;23896;50.678;10.924;2023-06-19T03:43:33;9.85;;;5.75;;
38085;SDS011;23896;50.678;10.924;2023-06-19T03:46:04;6.45;;;5.78;;
38085;SDS011;23896;50.678;10.924;2023-06-19T03:48:30;6.35;;;5.82;;
38085;SDS011;23896;50.678;10.924;2023-06-19T03:50:56;6.90;;;6.15;;
38085;SDS011;23896;50.678;10.924;2023-06-19T03:53:22;6.45;;;5.85;;
38085;SDS011;23896;50.678;10.924;2023-06-19T03:55:48;6.38;;;5.80;;
38085;SDS011;23896;50.678;10.924;2023-06-19T03:58:14;8.02;;;6.25;;
38085;SDS011;23896;50.678;10.924;2023-06-19T04:00:40;6.50;;;6.00;;
38085;SDS011;23896;50.678;10.924;2023-06-19T04:03:07;6.57;;;5.60;;
38085;SDS011;23896;50.678;10.924;2023-06-19T04:05:34;6.50;;;6.00;;
38085;SDS011;23896;50.678;10.924;2023-06-19T04:08:00;6.20;;;5.70;;
38085;SDS011;23896;50.678;10.924;2023-06-19T04:10:27;6.35;;;5.85;;
38085;SDS011;23896;50.678;10.924;2023-06-19T04:12:53;6.93;;;5.82;;
38085;SDS011;23896;50.678;10.924;2023-06-19T04:15:21;6.43;;;5.65;;
38085;SDS011;23896;50.678;10.924;2023-06-19T04:17:47;8.00;;;6.35;;
38085;SDS011;23896;50.678;10.924;2023-06-19T04:20:13;7.70;;;6.20;;
38085;SDS011;23896;50.678;10.924;2023-06-19T04:22:40;5.70;;;5.30;;
38085;SDS011;23896;50.678;10.924;2023-06-19T04:25:07;6.45;;;5.95;;
38085;SDS011;23896;50.678;10.924;2023-06-19T04:27:33;9.15;;;5.68;;
38085;SDS011;23896;50.678;10.924;2023-06-19T04:30:00;6.25;;;5.72;;
38085;SDS011;23896;50.678;10.924;2023-06-19T04:32:26;6.57;;;5.97;;
38085;SDS011;23896;50.678;10.924;2023-06-19T04:34:52;6.38;;;5.78;;
38085;SDS011;23896;50.678;10.924;2023-06-19T04:37:18;6.15;;;5.65;;
38085;SDS011;23896;50.678;10.924;2023-06-19T04:39:45;6.65;;;6.05;;
38085;SDS011;23896;50.678;10.924;2023-06-19T04:42:13;6.00;;;5.50;;
38085;SDS011;23896;50.678;10.924;2023-06-19T04:44:46;5.88;;;5.38;;
38085;SDS011;23896;50.678;10.924;2023-06-19T04:47:13;6.50;;;5.93;;
38085;SDS011;23896;50.678;10.924;2023-06-19T04:49:40;6.65;;;6.15;;
38085;SDS011;23896;50.678;10.924;2023-06-19T04:52:06;5.97;;;5.47;;
38085;SDS011;23896;50.678;10.924;2023-06-19T04:54:33;7.05;;;6.35;;
38085;SDS011;23896;50.678;10.924;2023-06-19T04:56:59;6.35;;;5.70;;
38085;SDS011;23896;50.678;10.924;2023-06-19T04:59:26;6.65;;;5.75;;
38085;SDS011;23896;50.678;10.924;2023-06-19T05:01:52;5.97;;;5.40;;
38085;SDS011;23896;50.678;10.924;2023-06-19T05:04:20;6.25;;;5.65;;
38085;SDS011;23896;50.678;10.924;2023-06-19T05:06:48;6.63;;;6.03;;
38085;SDS011;23896;50.678;10.924;2023-06-19T05:09:14;6.43;;;5.82;;
38085;SDS011;23896;50.678;10.924;2023-06-19T05:11:40;6.32;;;5.78;;
38085;SDS011;23896;50.678;10.924;2023-06-19T05:14:07;7.97;;;5.90;;
38085;SDS011;23896;50.678;10.924;2023-06-19T05:16:34;5.78;;;5.18;;
38085;SDS011;23896;50.678;10.924;2023-06-19T05:19:00;6.68;;;6.05;;
38085;SDS011;23896;50.678;10.924;2023-06-19T05:21:26;6.75;;;6.15;;
38085;SDS011;23896;50.678;10.924;2023-06-19T05:23:52;7.65;;;6.38;;
38085;SDS011;23896;50.678;10.924;2023-06-19T05:26:19;6.78;;;6.18;;
38085;SDS011;23896;50.678;10.924;2023-06-19T05:28:46;6.93;;;6.32;;
38085;SDS011;23896;50.678;10.924;2023-06-19T05:31:12;7.30;;;6.57;;
38085;SDS011;23896;50.678;10.924;2023-06-19T05:33:39;7.63;;;6.82;;
38085;SDS011;23896;50.678;10.924;2023-06-19T05:36:05;7.22;;;6.55;;
38085;SDS011;23896;50.678;10.924;2023-06-19T05:38:32;7.60;;;6.20;;
38085;SDS011;23896;50.678;10.924;2023-06-19T05:40:58;9.85;;;6.13;;
38085;SDS011;23896;50.678;10.924;2023-06-19T05:43:26;8.48;;;5.90;;
38085;SDS011;23896;50.678;10.924;2023-06-19T05:46:16;6.10;;;5.55;;
38085;SDS011;23896;50.678;10.924;2023-06-19T05:48:48;7.20;;;6.50;;
38085;SDS011;23896;50.678;10.924;2023-06-19T05:51:14;9.48;;;6.68;;
38085;SDS011;23896;50.678;10.924;2023-06-19T05:53:40;7.03;;;6.32;;
38085;SDS011;23896;50.678;10.924;2023-06-19T05:58:54;7.80;;;6.65;;
38085;SDS011;23896;50.678;10.924;2023-06-19T06:01:21;7.20;;;6.50;;
38085;SDS011;23896;50.678;10.924;2023-06-19T06:03:49;6.90;;;6.30;;
38085;SDS011;23896;50.678;10.924;2023-06-19T06:06:15;7.32;;;6.63;;
38085;SDS011;23896;50.678;10.924;2023-06-19T06:08:41;7.60;;;6.78;;
38085;SDS011;23896;50.678;10.924;2023-06-19T06:11:08;9.70;;;6.97;;
38085;SDS011;23896;50.678;10.924;2023-06-19T06:13:34;7.50;;;6.70;;
38085;SDS011;23896;50.678;10.924;2023-06-19T06:16:00;8.77;;;6.70;;
38085;SDS011;23896;50.678;10.924;2023-06-19T06:18:33;7.60;;;6.90;;
38085;SDS011;23896;50.678;10.924;2023-06-19T06:21:17;7.93;;;6.25;;
38085;SDS011;23896;50.678;10.924;2023-06-19T06:23:43;8.18;;;7.15;;
38085;SDS011;23896;50.678;10.924;2023-06-19T06:26:10;7.50;;;6.90;;
38085;SDS011;23896;50.678;10.924;2023-06-19T06:28:36;7.35;;;6.45;;
38085;SDS011;23896;50.678;10.924;2023-06-19T06:31:03;7.68;;;6.97;;
38085;SDS011;23896;50.678;10.924;2023-06-19T06:33:29;7.95;;;7.25;;
38085;SDS011;23896;50.678;10.924;2023-06-19T06:35:57;9.30;;;7.47;;
38085;SDS011;23896;50.678;10.924;2023-06-19T06:38:23;7.82;;;7.18;;
38085;SDS011;23896;50.678;10.924;2023-06-19T06:40:51;8.50;;;6.78;;
38085;SDS011;23896;50.678;10.924;2023-06-19T06:43:17;8.88;;;7.20;;
38085;SDS011;23896;50.678;10.924;2023-06-19T06:45:43;7.97;;;6.65;;
38085;SDS011;23896;50.678;10.924;2023-06-19T06:48:09;7.97;;;7.28;;
38085;SDS011;23896;50.678;10.924;2023-06-19T06:50:37;8.45;;;7.28;;
38085;SDS011;23896;50.678;10.924;2023-06-19T06:53:04;8.00;;;7.30;;
38085;SDS011;23896;50.678;10.924;2023-06-19T06:55:30;7.28;;;6.57;;
38085;SDS011;23896;50.678;10.924;2023-06-19T06:57:56;8.82;;;8.07;;
38085;SDS011;23896;50.678;10.924;2023-06-19T07:00:23;11.15;;;8.13;;
38085;SDS011;23896;50.678;10.924;2023-06-19T07:02:49;11.40;;;7.68;;
38085;SDS011;23896;50.678;10.924;2023-06-19T07:05:16;9.80;;;7.72;;
38085;SDS011;23896;50.678;10.924;2023-06-19T07:07:43;9.02;;;6.97;;
38085;SDS011;23896;50.678;10.924;2023-06-19T07:10:09;8.25;;;7.53;;
38085;SDS011;23896;50.678;10.924;2023-06-19T07:12:43;9.00;;;7.78;;
38085;SDS011;23896;50.678;10.924;2023-06-19T07:15:09;9.02;;;7.82;;
38085;SDS011;23896;50.678;10.924;2023-06-19T07:17:36;8.23;;;7.00;;
38085;SDS011;23896;50.678;10.924;2023-06-19T07:20:03;8.13;;;7.38;;
38085;SDS011;23896;50.678;10.924;2023-06-19T07:22:29;12.07;;;7.85;;
38085;SDS011;23896;50.678;10.924;2023-06-19T07:24:55;8.02;;;7.22;;
38085;SDS011;23896;50.678;10.924;2023-06-19T07:27:22;8.25;;;7.47;;
38085;SDS011;23896;50.678;10.924;2023-06-19T07:29:52;9.55;;;8.65;;
38085;SDS011;23896;50.678;10.924;2023-06-19T07:32:18;8.05;;;7.25;;
38085;SDS011;23896;50.678;10.924;2023-06-19T07:34:45;8.93;;;8.13;;
38085;SDS011;23896;50.678;10.924;2023-06-19T07:37:12;7.20;;;6.55;;
38085;SDS011;23896;50.678;10.924;2023-06-19T07:39:43;7.32;;;6.60;;
38085;SDS011;23896;50.678;10.924;2023-06-19T07:42:09;8.13;;;7.18;;
38085;SDS011;23896;50.678;10.924;2023-06-19T07:44:36;7.60;;;6.88;;
38085;SDS011;23896;50.678;10.924;2023-06-19T07:47:02;9.77;;;7.13;;
38085;SDS011;23896;50.678;10.924;2023-06-19T07:49:28;9.75;;;7.00;;
38085;SDS011;23896;50.678;10.924;2023-06-19T07:51:55;9.65;;;7.97;;
38085;SDS011;23896;50.678;10.924;2023-06-19T07:54:21;8.15;;;7.25;;
38085;SDS011;23896;50.678;10.924;2023-06-19T07:56:47;8.23;;;7.18;;
38085;SDS011;23896;50.678;10.924;2023-06-19T07:59:13;7.07;;;6.38;;
38085;SDS011;23896;50.678;10.924;2023-06-19T08:01:41;8.20;;;7.55;;
38085;SDS011;23896;50.678;10.924;2023-06-19T08:04:07;7.88;;;7.18;;
38085;SDS011;23896;50.678;10.924;2023-06-19T08:06:33;8.38;;;7.47;;
38085;SDS011;23896;50.678;10.924;2023-06-19T08:08:59;6.93;;;6.32;;
38085;SDS011;23896;50.678;10.924;2023-06-19T08:11:26;7.68;;;6.47;;
38085;SDS011;23896;50.678;10.924;2023-06-19T08:13:52;7.40;;;6.75;;
38085;SDS011;23896;50.678;10.924;2023-06-19T08:16:18;6.85;;;6.35;;
38085;SDS011;23896;50.678;10.924;2023-06-19T08:18:46;7.35;;;6.70;;
38085;SDS011;23896;50.678;10.924;2023-06-19T08:21:12;7.13;;;6.55;;
38085;SDS011;23896;50.678;10.924;2023-06-19T08:23:38;7.05;;;6.47;;
38085;SDS011;23896;50.678;10.924;2023-06-19T08:26:05;6.90;;;6.30;;
38085;SDS011;23896;50.678;10.924;2023-06-19T08:28:33;8.88;;;6.25;;
38085;SDS011;23896;50.678;10.924;2023-06-19T08:30:59;6.22;;;5.80;;
38085;SDS011;23896;50.678;10.924;2023-06-19T08:33:25;6.18;;;5.60;;
38085;SDS011;23896;50.678;10.924;2023-06-19T08:35:52;7.15;;;5.82;;
38085;SDS011;23896;50.678;10.924;2023-06-19T08:38:18;6.63;;;6.03;;
38085;SDS011;23896;50.678;10.924;2023-06-19T08:40:45;7.72;;;6.88;;
38085;SDS011;23896;50.678;10.924;2023-06-19T08:43:13;8.70;;;6.03;;
38085;SDS011;23896;50.678;10.924;2023-06-19T08:45:39;9.27;;;7.10;;
38085;SDS011;23896;50.678;10.924;2023-06-19T08:48:05;7.47;;;6.63;;
38085;SDS011;23896;50.678;10.924;2023-06-19T08:50:34;6.60;;;6.10;;
38085;SDS011;23896;50.678;10.924;2023-06-19T08:53:00;6.57;;;6.05;;
38085;SDS011;23896;50.678;10.924;2023-06-19T08:55:26;6.85;;;6.25;;
38085;SDS011;23896;50.678;10.924;2023-06-19T08:57:52;6.93;;;6.28;;
38085;SDS011;23896;50.678;10.924;2023-06-19T09:00:22;7.03;;;6.15;;
38085;SDS011;23896;50.678;10.924;2023-06-19T09:02:50;5.90;;;5.40;;
38085;SDS011;23896;50.678;10.924;2023-06-19T09:05:17;5.93;;;5.53;;
38085;SDS011;23896;50.678;10.924;2023-06-19T09:07:58;7.50;;;6.68;;
38085;SDS011;23896;50.678;10.924;2023-06-19T09:10:26;6.63;;;6.03;;
38085;SDS011;23896;50.678;10.924;2023-06-19T09:12:56;8.65;;;6.50;;
38085;SDS011;23896;50.678;10.924;2023-06-19T09:15:22;6.53;;;5.90;;
38085;SDS011;23896;50.678;10.924;2023-06-19T09:17:59;6.53;;;5.97;;
38085;SDS011;23896;50.678;10.924;2023-06-19T09:20:26;7.10;;;6.47;;
38085;SDS011;23896;50.678;10.924;2023-06-19T09:22:55;8.73;;;6.40;;
38085;SDS011;23896;50.678;10.924;2023-06-19T09:25:21;7.15;;;6.45;;
38085;SDS011;23896;50.678;10.924;2023-06-19T09:27:48;6.65;;;5.97;;
38085;SDS011;23896;50.678;10.924;2023-06-19T09:30:15;7.68;;;6.88;;
38085;SDS011;23896;50.678;10.924;2023-06-19T09:32:41;8.38;;;5.88;;
38085;SDS011;23896;50.678;10.924;2023-06-19T09:35:07;6.93;;;6.43;;
38085;SDS011;23896;50.678;10.924;2023-06-19T09:37:34;6.53;;;5.93;;
38085;SDS011;23896;50.678;10.924;2023-06-19T09:40:01;6.75;;;5.97;;
38085;SDS011;23896;50.678;10.924;2023-06-19T09:42:37;7.50;;;6.30;;
38085;SDS011;23896;50.678;10.924;2023-06-19T09:45:05;7.07;;;6.05;;
38085;SDS011;23896;50.678;10.924;2023-06-19T09:47:34;6.13;;;5.40;;
38085;SDS011;23896;50.678;10.924;2023-06-19T09:50:02;10.38;;;5.65;;
38085;SDS011;23896;50.678;10.924;2023-06-19T09:52:29;7.35;;;5.55;;
38085;SDS011;23896;50.678;10.924;2023-06-19T09:54:59;5.63;;;5.13;;
38085;SDS011;23896;50.678;10.924;2023-06-19T09:57:27;5.25;;;4.70;;
38085;SDS011;23896;50.678;10.924;2023-06-19T09:59:58;6.63;;;5.18;;
38085;SDS011;23896;50.678;10.924;2023-06-19T10:02:27;5.63;;;4.90;;
38085;SDS011;23896;50.678;10.924;2023-06-19T10:04:56;5.38;;;4.93;;
38085;SDS011;23896;50.678;10.924;2023-06-19T10:07:26;5.47;;;4.95;;
38085;SDS011;23896;50.678;10.924;2023-06-19T10:10:05;5.20;;;4.80;;
38085;SDS011;23896;50.678;10.924;2023-06-19T10:15:27;5.15;;;4.72;;
38085;SDS011;23896;50.678;10.924;2023-06-19T10:18:17;6.07;;;5.10;;
38085;SDS011;23896;50.678;10.924;2023-06-19T10:20:54;5.38;;;4.88;;
38085;SDS011;23896;50.678;10.924;2023-06-19T10:23:26;5.00;;;4.60;;
38085;SDS011;23896;50.678;10.924;2023-06-19T10:26:01;7.60;;;4.72;;
38085;SDS011;23896;50.678;10.924;2023-06-19T10:31:04;5.55;;;5.10;;
38085;SDS011;23896;50.678;10.924;2023-06-19T10:33:31;5.20;;;4.70;;
38085;SDS011;23896;50.678;10.924;2023-06-19T10:35:58;4.57;;;4.28;;
38085;SDS011;23896;50.678;10.924;2023-06-19T10:38:26;4.28;;;3.97;;
38085;SDS011;23896;50.678;10.924;2023-06-19T10:40:52;5.70;;;5.00;;
38085;SDS011;23896;50.678;10.924;2023-06-19T10:43:20;5.00;;;4.60;;
38085;SDS011;23896;50.678;10.924;2023-06-19T10:45:47;4.68;;;4.20;;
38085;SDS011;23896;50.678;10.924;2023-06-19T10:48:18;5.95;;;4.30;;
38085;SDS011;23896;50.678;10.924;2023-06-19T10:50:44;4.57;;;4.28;;
38085;SDS011;23896;50.678;10.924;2023-06-19T10:53:11;6.63;;;3.95;;
38085;SDS011;23896;50.678;10.924;2023-06-19T10:55:37;4.55;;;4.13;;
38085;SDS011;23896;50.678;10.924;2023-06-19T10:58:03;4.18;;;3.78;;
38085;SDS011;23896;50.678;10.924;2023-06-19T11:00:30;4.80;;;4.50;;
38085;SDS011;23896;50.678;10.924;2023-06-19T11:02:57;4.28;;;3.97;;
38085;SDS011;23896;50.678;10.924;2023-06-19T11:05:25;4.43;;;4.13;;
38085;SDS011;23896;50.678;10.924;2023-06-19T11:07:54;4.30;;;3.90;;
38085;SDS011;23896;50.678;10.924;2023-06-19T11:10:21;4.57;;;4.28;;
38085;SDS011;23896;50.678;10.924;2023-06-19T11:12:47;4.97;;;4.53;;
38085;SDS011;23896;50.678;10.924;2023-06-19T11:15:14;4.68;;;4.38;;
38085;SDS011;23896;50.678;10.924;2023-06-19T11:17:41;5.20;;;4.78;;
38085;SDS011;23896;50.678;10.924;2023-06-19T11:20:11;5.45;;;4.53;;
38085;SDS011;23896;50.678;10.924;2023-06-19T11:22:38;4.93;;;4.53;;
38085;SDS011;23896;50.678;10.924;2023-06-19T11:25:06;5.22;;;4.82;;
38085;SDS011;23896;50.678;10.924;2023-06-19T11:27:32;5.20;;;4.80;;
38085;SDS011;23896;50.678;10.924;2023-06-19T11:30:00;6.25;;;4.72;;
38085;SDS011;23896;50.678;10.924;2023-06-19T11:32:31;6.32;;;4.95;;
38085;SDS011;23896;50.678;10.924;2023-06-19T11:34:57;4.93;;;4.63;;
38085;SDS011;23896;50.678;10.924;2023-06-19T11:37:23;6.53;;;5.05;;
38085;SDS011;23896;50.678;10.924;2023-06-19T11:39:50;5.63;;;5.22;;
38085;SDS011;23896;50.678;10.924;2023-06-19T11:42:17;5.55;;;5.15;;
38085;SDS011;23896;50.678;10.924;2023-06-19T11:47:23;5.95;;;5.53;;
38085;SDS011;23896;50.678;10.924;2023-06-19T11:49:50;5.68;;;5.22;;
38085;SDS011;23896;50.678;10.924;2023-06-19T11:52:17;5.85;;;5.35;;
38085;SDS011;23896;50.678;10.924;2023-06-19T11:54:43;5.75;;;5.35;;
38085;SDS011;23896;50.678;10.924;2023-06-19T11:57:09;6.10;;;5.70;;
38085;SDS011;23896;50.678;10.924;2023-06-19T11:59:38;5.72;;;5.13;;
38085;SDS011;23896;50.678;10.924;2023-06-19T12:02:10;6.22;;;5.72;;
38085;SDS011;23896;50.678;10.924;2023-06-19T12:04:45;5.63;;;5.22;;
38085;SDS011;23896;50.678;10.924;2023-06-19T12:07:11;5.40;;;4.90;;
38085;SDS011;23896;50.678;10.924;2023-06-19T12:09:38;5.30;;;4.93;;
38085;SDS011;23896;50.678;10.924;2023-06-19T12:12:07;5.28;;;4.88;;
38085;SDS011;23896;50.678;10.924;2023-06-19T12:14:34;5.28;;;4.88;;
38085;SDS011;23896;50.678;10.924;2023-06-19T12:17:01;4.50;;;4.10;;
38085;SDS011;23896;50.678;10.924;2023-06-19T12:19:35;5.47;;;4.95;;
38085;SDS011;23896;50.678;10.924;2023-06-19T12:22:12;4.97;;;4.57;;
38085;SDS011;23896;50.678;10.924;2023-06-19T12:24:45;5.70;;;4.45;;
38085;SDS011;23896;50.678;10.924;2023-06-19T12:27:12;4.70;;;4.30;;
38085;SDS011;23896;50.678;10.924;2023-06-19T12:29:38;4.65;;;4.35;;
38085;SDS011;23896;50.678;10.924;2023-06-19T12:32:21;4.82;;;4.53;;
38085;SDS011;23896;50.678;10.924;2023-06-19T12:34:51;6.10;;;5.18;;
38085;SDS011;23896;50.678;10.924;2023-06-19T12:37:19;5.22;;;4.82;;
38085;SDS011;23896;50.678;10.924;2023-06-19T12:39:58;4.75;;;4.38;;
38085;SDS011;23896;50.678;10.924;2023-06-19T12:42:32;6.50;;;4.45;;
38085;SDS011;23896;50.678;10.924;2023-06-19T12:45:05;5.70;;;5.30;;
38085;SDS011;23896;50.678;10.924;2023-06-19T12:47:32;6.57;;;5.18;;
38085;SDS011;23896;50.678;10.924;2023-06-19T12:49:58;5.22;;;4.82;;
38085;SDS011;23896;50.678;10.924;2023-06-19T12:52:24;4.85;;;4.55;;
38085;SDS011;23896;50.678;10.924;2023-06-19T12:54:52;7.18;;;4.72;;
38085;SDS011;23896;50.678;10.924;2023-06-19T12:57:18;7.03;;;4.80;;
38085;SDS011;23896;50.678;10.924;2023-06-19T12:59:45;6.47;;;5.30;;
38085;SDS011;23896;50.678;10.924;2023-06-19T13:02:12;8.00;;;5.32;;
38085;SDS011;23896;50.678;10.924;2023-06-19T13:04:38;5.88;;;5.28;;
38085;SDS011;23896;50.678;10.924;2023-06-19T13:07:05;6.15;;;5.45;;
38085;SDS011;23896;50.678;10.924;2023-06-19T13:09:33;6.05;;;5.55;;
38085;SDS011;23896;50.678;10.924;2023-06-19T13:12:02;5.85;;;5.35;;
38085;SDS011;23896;50.678;10.924;2023-06-19T13:14:31;5.53;;;5.13;;
38085;SDS011;23896;50.678;10.924;2023-06-19T13:17:02;5.07;;;4.68;;
38085;SDS011;23896;50.678;10.924;2023-06-19T13:19:31;6.43;;;5.82;;
38085;SDS011;23896;50.678;10.924;2023-06-19T13:22:02;5.85;;;5.40;;
38085;SDS011;23896;50.678;10.924;2023-06-19T13:24:35;5.13;;;4.63;;
38085;SDS011;23896;50.678;10.924;2023-06-19T13:27:17;5.70;;;5.30;;
38085;SDS011;23896;50.678;10.924;2023-06-19T13:30:25;5.82;;;5.32;;
38085;SDS011;23896;50.678;10.924;2023-06-19T13:33:05;5.97;;;5.57;;
38085;SDS011;23896;50.678;10.924;2023-06-19T13:35:40;7.50;;;5.93;;
38085;SDS011;23896;50.678;10.924;2023-06-19T13:38:16;6.07;;;5.57;;
38085;SDS011;23896;50.678;10.924;2023-06-19T13:40:50;9.73;;;5.80;;
38085;SDS011;23896;50.678;10.924;2023-06-19T13:43:28;5.75;;;5.25;;
38085;SDS011;23896;50.678;10.924;2023-06-19T13:46:00;6.55;;;5.53;;
38085;SDS011;23896;50.678;10.924;2023-06-19T13:51:27;5.97;;;5.47;;
38085;SDS011;23896;50.678;10.924;2023-06-19T13:54:05;7.03;;;5.57;;
38085;SDS011;23896;50.678;10.924;2023-06-19T13:56:32;8.38;;;6.22;;
38085;SDS011;23896;50.678;10.924;2023-06-19T13:58:59;6.07;;;5.53;;
38085;SDS011;23896;50.678;10.924;2023-06-19T14:01:26;5.70;;;5.18;;
38085;SDS011;23896;50.678;10.924;2023-06-19T14:03:53;7.88;;;6.20;;
38085;SDS011;23896;50.678;10.924;2023-06-19T14:06:19;6.07;;;5.57;;
38085;SDS011;23896;50.678;10.924;2023-06-19T14:08:45;6.55;;;5.95;;
38085;SDS011;23896;50.678;10.924;2023-06-19T14:11:13;6.28;;;5.80;;
38085;SDS011;23896;50.678;10.924;2023-06-19T14:14:00;7.30;;;5.55;;
38085;SDS011;23896;50.678;10.924;2023-06-19T14:16:32;5.88;;;4.90;;
38085;SDS011;23896;50.678;10.924;2023-06-19T14:19:31;6.45;;;5.78;;
38085;SDS011;23896;50.678;10.924;2023-06-19T14:22:02;7.20;;;5.93;;
38085;SDS011;23896;50.678;10.924;2023-06-19T14:24:37;5.90;;;5.50;;
38085;SDS011;23896;50.678;10.924;2023-06-19T14:27:23;6.82;;;6.00;;
38085;SDS011;23896;50.678;10.924;2023-06-19T14:29:54;7.15;;;6.15;;
38085;SDS011;23896;50.678;10.924;2023-06-19T14:32:21;6.38;;;5.82;;
38085;SDS011;23896;50.678;10.924;2023-06-19T14:34:49;5.95;;;5.43;;
38085;SDS011;23896;50.678;10.924;2023-06-19T14:37:24;7.03;;;5.95;;
38085;SDS011;23896;50.678;10.924;2023-06-19T14:39:54;7.15;;;5.40;;
38085;SDS011;23896;50.678;10.924;2023-06-19T14:42:22;6.57;;;6.00;;
38085;SDS011;23896;50.678;10.924;2023-06-19T14:44:50;5.97;;;5.55;;
38085;SDS011;23896;50.678;10.924;2023-06-19T14:47:20;7.10;;;5.25;;
38085;SDS011;23896;50.678;10.924;2023-06-19T14:49:46;6.07;;;5.47;;
38085;SDS011;23896;50.678;10.924;2023-06-19T14:52:12;6.00;;;5.50;;
38085;SDS011;23896;50.678;10.924;2023-06-19T14:54:42;6.22;;;5.68;;
38085;SDS011;23896;50.678;10.924;2023-06-19T14:57:08;5.93;;;4.75;;
38085;SDS011;23896;50.678;10.924;2023-06-19T14:59:34;5.80;;;5.25;;
38085;SDS011;23896;50.678;10.924;2023-06-19T15:02:01;5.78;;;5.28;;
38085;SDS011;23896;50.678;10.924;2023-06-19T15:04:28;7.10;;;5.53;;